sensor_id;sensor_type;location;lat;lon;timestamp;P1;durP1;ratioP1;P2;durP2;ratioP2
15929;SDS011;8064;51.142;4.780;2022-09-11T00:01:08;6.53;;;5.83;;
15929;SDS011;8064;51.142;4.780;2022-09-11T00:03:47;6.53;;;5.70;;
15929;SDS011;8064;51.142;4.780;2022-09-11T00:06:15;7.57;;;6.70;;
15929;SDS011;8064;51.142;4.780;2022-09-11T00:08:44;8.43;;;5.37;;
15929;SDS011;8064;51.142;4.780;2022-09-11T00:11:13;5.20;;;4.50;;
15929;SDS011;8064;51.142;4.780;2022-09-11T00:13:41;5.50;;;4.97;;
15929;SDS011;8064;51.142;4.780;2022-09-11T00:18:53;8.03;;;7.23;;
15929;SDS011;8064;51.142;4.780;2022-09-11T00:21:21;9.23;;;7.90;;
15929;SDS011;8064;51.142;4.780;2022-09-11T00:23:47;9.63;;;8.63;;
15929;SDS011;8064;51.142;4.780;2022-09-11T00:26:15;10.07;;;9.07;;
15929;SDS011;8064;51.142;4.780;2022-09-11T00:28:43;10.37;;;8.83;;
15929;SDS011;8064;51.142;4.780;2022-09-11T00:33:48;10.40;;;9.20;;
15929;SDS011;8064;51.142;4.780;2022-09-11T00:36:17;11.00;;;9.90;;
15929;SDS011;8064;51.142;4.780;2022-09-11T00:38:45;11.47;;;10.37;;
15929;SDS011;8064;51.142;4.780;2022-09-11T00:41:13;11.77;;;10.63;;
15929;SDS011;8064;51.142;4.780;2022-09-11T00:43:54;12.63;;;10.57;;
15929;SDS011;8064;51.142;4.780;2022-09-11T00:46:25;13.63;;;11.00;;
15929;SDS011;8064;51.142;4.780;2022-09-11T00:51:48;12.43;;;11.13;;
15929;SDS011;8064;51.142;4.780;2022-09-11T00:54:18;11.80;;;10.57;;
15929;SDS011;8064;51.142;4.780;2022-09-11T00:56:49;10.43;;;9.33;;
15929;SDS011;8064;51.142;4.780;2022-09-11T00:59:16;12.97;;;10.07;;
15929;SDS011;8064;51.142;4.780;2022-09-11T01:01:45;12.63;;;9.23;;
15929;SDS011;8064;51.142;4.780;2022-09-11T01:04:11;10.97;;;9.50;;
15929;SDS011;8064;51.142;4.780;2022-09-11T01:06:38;10.83;;;9.40;;
15929;SDS011;8064;51.142;4.780;2022-09-11T01:09:04;11.97;;;10.67;;
15929;SDS011;8064;51.142;4.780;2022-09-11T01:11:34;12.50;;;11.30;;
15929;SDS011;8064;51.142;4.780;2022-09-11T01:16:56;12.40;;;11.07;;
15929;SDS011;8064;51.142;4.780;2022-09-11T01:22:19;16.93;;;12.70;;
15929;SDS011;8064;51.142;4.780;2022-09-11T01:25:07;14.20;;;11.33;;
15929;SDS011;8064;51.142;4.780;2022-09-11T01:27:52;10.80;;;9.80;;
15929;SDS011;8064;51.142;4.780;2022-09-11T01:30:21;10.60;;;9.60;;
15929;SDS011;8064;51.142;4.780;2022-09-11T01:33:00;10.60;;;8.67;;
15929;SDS011;8064;51.142;4.780;2022-09-11T01:38:35;6.33;;;5.83;;
15929;SDS011;8064;51.142;4.780;2022-09-11T01:41:15;7.60;;;5.77;;
15929;SDS011;8064;51.142;4.780;2022-09-11T01:46:38;11.90;;;10.13;;
15929;SDS011;8064;51.142;4.780;2022-09-11T01:49:07;12.57;;;10.53;;
15929;SDS011;8064;51.142;4.780;2022-09-11T01:51:39;18.07;;;11.20;;
15929;SDS011;8064;51.142;4.780;2022-09-11T01:54:08;14.40;;;11.60;;
15929;SDS011;8064;51.142;4.780;2022-09-11T01:56:40;14.37;;;10.60;;
15929;SDS011;8064;51.142;4.780;2022-09-11T01:59:11;19.30;;;11.77;;
15929;SDS011;8064;51.142;4.780;2022-09-11T02:01:42;36.07;;;12.77;;
15929;SDS011;8064;51.142;4.780;2022-09-11T02:04:17;22.17;;;12.87;;
15929;SDS011;8064;51.142;4.780;2022-09-11T02:06:48;35.20;;;12.37;;
15929;SDS011;8064;51.142;4.780;2022-09-11T02:09:20;23.93;;;13.10;;
15929;SDS011;8064;51.142;4.780;2022-09-11T02:11:50;42.47;;;13.50;;
15929;SDS011;8064;51.142;4.780;2022-09-11T02:17:09;41.10;;;10.33;;
15929;SDS011;8064;51.142;4.780;2022-09-11T02:19:56;41.97;;;8.43;;
15929;SDS011;8064;51.142;4.780;2022-09-11T02:22:24;34.83;;;7.67;;
15929;SDS011;8064;51.142;4.780;2022-09-11T02:24:50;43.67;;;7.40;;
15929;SDS011;8064;51.142;4.780;2022-09-11T02:27:18;29.20;;;7.27;;
15929;SDS011;8064;51.142;4.780;2022-09-11T02:29:48;26.00;;;7.60;;
15929;SDS011;8064;51.142;4.780;2022-09-11T02:32:14;37.33;;;8.53;;
15929;SDS011;8064;51.142;4.780;2022-09-11T02:34:40;24.87;;;8.37;;
15929;SDS011;8064;51.142;4.780;2022-09-11T02:37:12;20.70;;;8.07;;
15929;SDS011;8064;51.142;4.780;2022-09-11T02:42:29;20.87;;;6.77;;
15929;SDS011;8064;51.142;4.780;2022-09-11T02:50:58;21.50;;;8.00;;
15929;SDS011;8064;51.142;4.780;2022-09-11T02:53:46;19.40;;;8.60;;
15929;SDS011;8064;51.142;4.780;2022-09-11T02:56:15;30.50;;;8.27;;
15929;SDS011;8064;51.142;4.780;2022-09-11T02:59:03;20.90;;;8.00;;
15929;SDS011;8064;51.142;4.780;2022-09-11T03:04:11;16.10;;;8.37;;
15929;SDS011;8064;51.142;4.780;2022-09-11T03:06:39;23.70;;;8.37;;
15929;SDS011;8064;51.142;4.780;2022-09-11T03:09:07;14.87;;;7.70;;
15929;SDS011;8064;51.142;4.780;2022-09-11T03:11:33;9.17;;;7.80;;
15929;SDS011;8064;51.142;4.780;2022-09-11T03:14:00;10.43;;;7.80;;
15929;SDS011;8064;51.142;4.780;2022-09-11T03:16:26;11.87;;;8.07;;
15929;SDS011;8064;51.142;4.780;2022-09-11T03:18:51;15.80;;;7.97;;
15929;SDS011;8064;51.142;4.780;2022-09-11T03:21:17;10.97;;;8.13;;
15929;SDS011;8064;51.142;4.780;2022-09-11T03:23:43;11.73;;;8.67;;
15929;SDS011;8064;51.142;4.780;2022-09-11T03:26:09;13.43;;;8.47;;
15929;SDS011;8064;51.142;4.780;2022-09-11T03:28:35;16.57;;;8.67;;
15929;SDS011;8064;51.142;4.780;2022-09-11T03:31:00;9.67;;;8.60;;
15929;SDS011;8064;51.142;4.780;2022-09-11T03:33:26;20.40;;;10.03;;
15929;SDS011;8064;51.142;4.780;2022-09-11T03:35:52;16.13;;;9.50;;
15929;SDS011;8064;51.142;4.780;2022-09-11T03:38:18;19.80;;;10.67;;
15929;SDS011;8064;51.142;4.780;2022-09-11T03:40:44;14.83;;;10.40;;
15929;SDS011;8064;51.142;4.780;2022-09-11T03:43:10;16.93;;;10.50;;
15929;SDS011;8064;51.142;4.780;2022-09-11T03:45:36;12.77;;;10.20;;
15929;SDS011;8064;51.142;4.780;2022-09-11T03:48:03;16.63;;;10.37;;
15929;SDS011;8064;51.142;4.780;2022-09-11T03:50:30;30.30;;;11.43;;
15929;SDS011;8064;51.142;4.780;2022-09-11T03:52:56;16.13;;;10.30;;
15929;SDS011;8064;51.142;4.780;2022-09-11T03:55:22;24.00;;;11.17;;
15929;SDS011;8064;51.142;4.780;2022-09-11T03:57:48;28.87;;;10.33;;
15929;SDS011;8064;51.142;4.780;2022-09-11T04:00:14;28.07;;;11.70;;
15929;SDS011;8064;51.142;4.780;2022-09-11T04:02:39;30.70;;;10.20;;
15929;SDS011;8064;51.142;4.780;2022-09-11T04:05:06;17.00;;;10.20;;
15929;SDS011;8064;51.142;4.780;2022-09-11T04:07:33;24.93;;;10.47;;
15929;SDS011;8064;51.142;4.780;2022-09-11T04:09:59;22.40;;;10.73;;
15929;SDS011;8064;51.142;4.780;2022-09-11T04:12:25;21.43;;;11.50;;
15929;SDS011;8064;51.142;4.780;2022-09-11T04:14:50;21.57;;;11.87;;
15929;SDS011;8064;51.142;4.780;2022-09-11T04:17:16;27.43;;;11.40;;
15929;SDS011;8064;51.142;4.780;2022-09-11T04:19:43;21.37;;;10.73;;
15929;SDS011;8064;51.142;4.780;2022-09-11T04:22:09;30.33;;;11.67;;
15929;SDS011;8064;51.142;4.780;2022-09-11T04:24:34;28.30;;;11.23;;
15929;SDS011;8064;51.142;4.780;2022-09-11T04:27:00;17.07;;;10.47;;
15929;SDS011;8064;51.142;4.780;2022-09-11T04:29:27;16.07;;;10.50;;
15929;SDS011;8064;51.142;4.780;2022-09-11T04:31:52;17.00;;;10.30;;
15929;SDS011;8064;51.142;4.780;2022-09-11T04:34:20;15.27;;;10.03;;
15929;SDS011;8064;51.142;4.780;2022-09-11T04:36:46;14.87;;;10.13;;
15929;SDS011;8064;51.142;4.780;2022-09-11T04:39:11;12.73;;;10.43;;
15929;SDS011;8064;51.142;4.780;2022-09-11T04:41:37;10.80;;;9.80;;
15929;SDS011;8064;51.142;4.780;2022-09-11T04:44:03;11.87;;;9.77;;
15929;SDS011;8064;51.142;4.780;2022-09-11T04:46:29;16.00;;;10.40;;
15929;SDS011;8064;51.142;4.780;2022-09-11T04:48:55;11.67;;;10.57;;
15929;SDS011;8064;51.142;4.780;2022-09-11T04:51:37;15.77;;;10.77;;
15929;SDS011;8064;51.142;4.780;2022-09-11T04:54:04;12.10;;;10.47;;
15929;SDS011;8064;51.142;4.780;2022-09-11T04:56:31;14.50;;;10.73;;
15929;SDS011;8064;51.142;4.780;2022-09-11T04:58:59;16.17;;;10.73;;
15929;SDS011;8064;51.142;4.780;2022-09-11T05:01:27;21.20;;;11.37;;
15929;SDS011;8064;51.142;4.780;2022-09-11T05:03:56;14.30;;;11.50;;
15929;SDS011;8064;51.142;4.780;2022-09-11T05:06:22;20.13;;;11.57;;
15929;SDS011;8064;51.142;4.780;2022-09-11T05:08:48;27.10;;;12.40;;
15929;SDS011;8064;51.142;4.780;2022-09-11T05:11:15;19.40;;;12.37;;
15929;SDS011;8064;51.142;4.780;2022-09-11T05:13:42;18.33;;;11.60;;
15929;SDS011;8064;51.142;4.780;2022-09-11T05:16:10;18.17;;;11.43;;
15929;SDS011;8064;51.142;4.780;2022-09-11T05:18:38;28.83;;;11.87;;
15929;SDS011;8064;51.142;4.780;2022-09-11T05:21:08;19.90;;;11.07;;
15929;SDS011;8064;51.142;4.780;2022-09-11T05:23:36;28.90;;;11.10;;
15929;SDS011;8064;51.142;4.780;2022-09-11T05:26:03;24.63;;;10.93;;
15929;SDS011;8064;51.142;4.780;2022-09-11T05:28:30;28.43;;;10.90;;
15929;SDS011;8064;51.142;4.780;2022-09-11T05:30:57;29.97;;;12.23;;
15929;SDS011;8064;51.142;4.780;2022-09-11T05:33:24;19.57;;;11.60;;
15929;SDS011;8064;51.142;4.780;2022-09-11T05:35:51;22.83;;;11.67;;
15929;SDS011;8064;51.142;4.780;2022-09-11T05:38:19;26.77;;;11.63;;
15929;SDS011;8064;51.142;4.780;2022-09-11T05:40:46;16.57;;;12.07;;
15929;SDS011;8064;51.142;4.780;2022-09-11T05:43:13;21.53;;;12.37;;
15929;SDS011;8064;51.142;4.780;2022-09-11T05:45:41;19.53;;;11.07;;
15929;SDS011;8064;51.142;4.780;2022-09-11T05:48:08;23.87;;;11.40;;
15929;SDS011;8064;51.142;4.780;2022-09-11T05:50:34;18.07;;;11.33;;
15929;SDS011;8064;51.142;4.780;2022-09-11T05:53:01;20.00;;;11.87;;
15929;SDS011;8064;51.142;4.780;2022-09-11T05:55:27;21.30;;;10.70;;
15929;SDS011;8064;51.142;4.780;2022-09-11T05:57:53;19.53;;;10.87;;
15929;SDS011;8064;51.142;4.780;2022-09-11T06:00:19;19.67;;;10.87;;
15929;SDS011;8064;51.142;4.780;2022-09-11T06:02:45;23.33;;;11.87;;
15929;SDS011;8064;51.142;4.780;2022-09-11T06:05:13;27.03;;;12.43;;
15929;SDS011;8064;51.142;4.780;2022-09-11T06:07:39;25.93;;;12.50;;
15929;SDS011;8064;51.142;4.780;2022-09-11T06:10:06;18.73;;;13.37;;
15929;SDS011;8064;51.142;4.780;2022-09-11T06:12:32;24.87;;;12.00;;
15929;SDS011;8064;51.142;4.780;2022-09-11T06:14:59;19.43;;;11.07;;
15929;SDS011;8064;51.142;4.780;2022-09-11T06:17:25;22.13;;;10.77;;
15929;SDS011;8064;51.142;4.780;2022-09-11T06:19:52;21.37;;;10.67;;
15929;SDS011;8064;51.142;4.780;2022-09-11T06:22:19;33.83;;;10.90;;
15929;SDS011;8064;51.142;4.780;2022-09-11T06:24:45;29.53;;;11.30;;
15929;SDS011;8064;51.142;4.780;2022-09-11T06:27:13;21.93;;;10.47;;
15929;SDS011;8064;51.142;4.780;2022-09-11T06:29:38;28.10;;;11.47;;
15929;SDS011;8064;51.142;4.780;2022-09-11T06:32:05;20.37;;;11.93;;
15929;SDS011;8064;51.142;4.780;2022-09-11T06:34:31;21.00;;;12.17;;
15929;SDS011;8064;51.142;4.780;2022-09-11T06:36:57;30.27;;;13.07;;
15929;SDS011;8064;51.142;4.780;2022-09-11T06:39:22;19.37;;;11.43;;
15929;SDS011;8064;51.142;4.780;2022-09-11T06:41:48;23.50;;;10.97;;
15929;SDS011;8064;51.142;4.780;2022-09-11T06:44:14;26.60;;;12.27;;
15929;SDS011;8064;51.142;4.780;2022-09-11T06:46:40;25.60;;;11.87;;
15929;SDS011;8064;51.142;4.780;2022-09-11T06:49:06;26.07;;;11.57;;
15929;SDS011;8064;51.142;4.780;2022-09-11T06:51:32;21.73;;;10.97;;
15929;SDS011;8064;51.142;4.780;2022-09-11T06:53:58;25.57;;;10.67;;
15929;SDS011;8064;51.142;4.780;2022-09-11T06:56:26;17.20;;;10.73;;
15929;SDS011;8064;51.142;4.780;2022-09-11T06:58:53;16.47;;;10.67;;
15929;SDS011;8064;51.142;4.780;2022-09-11T07:01:19;17.33;;;11.07;;
15929;SDS011;8064;51.142;4.780;2022-09-11T07:03:48;18.97;;;10.60;;
15929;SDS011;8064;51.142;4.780;2022-09-11T07:06:16;19.93;;;10.63;;
15929;SDS011;8064;51.142;4.780;2022-09-11T07:08:48;16.70;;;10.57;;
15929;SDS011;8064;51.142;4.780;2022-09-11T07:11:16;22.50;;;11.63;;
15929;SDS011;8064;51.142;4.780;2022-09-11T07:13:42;29.13;;;10.87;;
15929;SDS011;8064;51.142;4.780;2022-09-11T07:16:09;19.57;;;11.50;;
15929;SDS011;8064;51.142;4.780;2022-09-11T07:18:38;16.40;;;11.03;;
15929;SDS011;8064;51.142;4.780;2022-09-11T07:21:07;19.20;;;11.63;;
15929;SDS011;8064;51.142;4.780;2022-09-11T07:23:35;19.70;;;11.23;;
15929;SDS011;8064;51.142;4.780;2022-09-11T07:26:03;19.63;;;11.47;;
15929;SDS011;8064;51.142;4.780;2022-09-11T07:28:31;23.17;;;11.77;;
15929;SDS011;8064;51.142;4.780;2022-09-11T07:33:43;23.60;;;11.90;;
15929;SDS011;8064;51.142;4.780;2022-09-11T07:36:12;22.80;;;11.67;;
15929;SDS011;8064;51.142;4.780;2022-09-11T07:38:41;19.23;;;11.27;;
15929;SDS011;8064;51.142;4.780;2022-09-11T07:41:09;20.73;;;10.70;;
15929;SDS011;8064;51.142;4.780;2022-09-11T07:43:35;20.57;;;13.27;;
15929;SDS011;8064;51.142;4.780;2022-09-11T07:46:02;19.70;;;11.70;;
15929;SDS011;8064;51.142;4.780;2022-09-11T07:48:29;23.13;;;12.23;;
15929;SDS011;8064;51.142;4.780;2022-09-11T07:50:57;26.47;;;12.17;;
15929;SDS011;8064;51.142;4.780;2022-09-11T07:53:26;29.40;;;12.07;;
15929;SDS011;8064;51.142;4.780;2022-09-11T07:55:52;30.50;;;12.37;;
15929;SDS011;8064;51.142;4.780;2022-09-11T07:58:20;31.77;;;13.37;;
15929;SDS011;8064;51.142;4.780;2022-09-11T08:00:45;41.57;;;11.90;;
15929;SDS011;8064;51.142;4.780;2022-09-11T08:03:11;43.57;;;12.97;;
15929;SDS011;8064;51.142;4.780;2022-09-11T08:05:38;38.77;;;14.73;;
15929;SDS011;8064;51.142;4.780;2022-09-11T08:08:04;30.47;;;14.87;;
15929;SDS011;8064;51.142;4.780;2022-09-11T08:10:30;34.53;;;16.80;;
15929;SDS011;8064;51.142;4.780;2022-09-11T08:12:56;32.70;;;17.23;;
15929;SDS011;8064;51.142;4.780;2022-09-11T08:15:22;24.37;;;16.40;;
15929;SDS011;8064;51.142;4.780;2022-09-11T08:17:48;35.07;;;17.47;;
15929;SDS011;8064;51.142;4.780;2022-09-11T08:20:15;30.70;;;16.17;;
15929;SDS011;8064;51.142;4.780;2022-09-11T08:22:41;26.33;;;17.77;;
15929;SDS011;8064;51.142;4.780;2022-09-11T08:25:07;32.63;;;16.90;;
15929;SDS011;8064;51.142;4.780;2022-09-11T08:27:33;27.83;;;17.00;;
15929;SDS011;8064;51.142;4.780;2022-09-11T08:29:59;37.60;;;16.67;;
15929;SDS011;8064;51.142;4.780;2022-09-11T08:32:26;44.83;;;18.70;;
15929;SDS011;8064;51.142;4.780;2022-09-11T08:34:52;29.30;;;19.60;;
15929;SDS011;8064;51.142;4.780;2022-09-11T08:37:18;31.73;;;20.83;;
15929;SDS011;8064;51.142;4.780;2022-09-11T08:39:44;34.33;;;20.37;;
15929;SDS011;8064;51.142;4.780;2022-09-11T08:42:11;37.37;;;21.33;;
15929;SDS011;8064;51.142;4.780;2022-09-11T08:44:42;34.73;;;21.43;;
15929;SDS011;8064;51.142;4.780;2022-09-11T08:47:29;38.33;;;22.30;;
15929;SDS011;8064;51.142;4.780;2022-09-11T08:52:42;36.90;;;22.87;;
15929;SDS011;8064;51.142;4.780;2022-09-11T08:58:07;40.63;;;23.37;;
15929;SDS011;8064;51.142;4.780;2022-09-11T09:01:03;37.87;;;24.10;;
15929;SDS011;8064;51.142;4.780;2022-09-11T09:03:47;34.40;;;22.47;;
15929;SDS011;8064;51.142;4.780;2022-09-11T09:06:27;36.40;;;23.90;;
15929;SDS011;8064;51.142;4.780;2022-09-11T09:08:59;37.03;;;24.17;;
15929;SDS011;8064;51.142;4.780;2022-09-11T09:11:39;41.23;;;25.17;;
15929;SDS011;8064;51.142;4.780;2022-09-11T09:14:28;39.33;;;25.10;;
15929;SDS011;8064;51.142;4.780;2022-09-11T09:17:15;37.57;;;25.00;;
15929;SDS011;8064;51.142;4.780;2022-09-11T09:25:26;44.87;;;26.87;;
15929;SDS011;8064;51.142;4.780;2022-09-11T09:28:06;47.73;;;26.63;;
15929;SDS011;8064;51.142;4.780;2022-09-11T09:30:45;42.30;;;25.63;;
15929;SDS011;8064;51.142;4.780;2022-09-11T09:33:20;45.30;;;27.67;;
15929;SDS011;8064;51.142;4.780;2022-09-11T09:35:53;44.77;;;28.20;;
15929;SDS011;8064;51.142;4.780;2022-09-11T09:38:20;51.70;;;28.63;;
15929;SDS011;8064;51.142;4.780;2022-09-11T09:40:53;47.33;;;28.13;;
15929;SDS011;8064;51.142;4.780;2022-09-11T09:43:28;44.87;;;29.07;;
15929;SDS011;8064;51.142;4.780;2022-09-11T09:46:06;49.13;;;28.53;;
15929;SDS011;8064;51.142;4.780;2022-09-11T09:48:36;43.83;;;28.37;;
15929;SDS011;8064;51.142;4.780;2022-09-11T09:51:04;45.47;;;27.73;;
15929;SDS011;8064;51.142;4.780;2022-09-11T09:56:02;42.07;;;28.13;;
15929;SDS011;8064;51.142;4.780;2022-09-11T09:58:31;43.93;;;27.03;;
15929;SDS011;8064;51.142;4.780;2022-09-11T10:01:00;43.03;;;27.30;;
15929;SDS011;8064;51.142;4.780;2022-09-11T10:03:26;42.67;;;27.60;;
15929;SDS011;8064;51.142;4.780;2022-09-11T10:05:53;43.03;;;27.03;;
15929;SDS011;8064;51.142;4.780;2022-09-11T10:08:33;46.03;;;28.70;;
15929;SDS011;8064;51.142;4.780;2022-09-11T10:11:01;51.63;;;30.70;;
15929;SDS011;8064;51.142;4.780;2022-09-11T10:13:31;48.37;;;29.63;;
15929;SDS011;8064;51.142;4.780;2022-09-11T10:15:59;48.20;;;29.77;;
15929;SDS011;8064;51.142;4.780;2022-09-11T10:23:59;49.83;;;32.00;;
15929;SDS011;8064;51.142;4.780;2022-09-11T10:26:31;52.97;;;33.33;;
15929;SDS011;8064;51.142;4.780;2022-09-11T10:31:37;51.13;;;32.10;;
15929;SDS011;8064;51.142;4.780;2022-09-11T10:34:05;48.85;;;32.13;;
15929;SDS011;8064;51.142;4.780;2022-09-11T10:36:39;50.55;;;32.60;;
15929;SDS011;8064;51.142;4.780;2022-09-11T10:39:31;52.05;;;34.97;;
15929;SDS011;8064;51.142;4.780;2022-09-11T10:42:06;51.77;;;34.33;;
15929;SDS011;8064;51.142;4.780;2022-09-11T10:44:47;52.63;;;34.33;;
15929;SDS011;8064;51.142;4.780;2022-09-11T10:47:15;52.20;;;37.80;;
15929;SDS011;8064;51.142;4.780;2022-09-11T10:49:46;46.33;;;34.35;;
15929;SDS011;8064;51.142;4.780;2022-09-11T11:02:54;36.25;;;28.42;;
15929;SDS011;8064;51.142;4.780;2022-09-11T11:41:28;16.58;;;13.88;;
15929;SDS011;8064;51.142;4.780;2022-09-11T11:44:00;20.08;;;17.20;;
15929;SDS011;8064;51.142;4.780;2022-09-11T11:46:30;19.92;;;16.88;;
15929;SDS011;8064;51.142;4.780;2022-09-11T11:49:15;19.88;;;15.88;;
15929;SDS011;8064;51.142;4.780;2022-09-11T11:51:50;19.63;;;14.68;;
15929;SDS011;8064;51.142;4.780;2022-09-11T11:57:34;8.85;;;7.93;;
15929;SDS011;8064;51.142;4.780;2022-09-11T12:00:09;9.93;;;7.68;;
15929;SDS011;8064;51.142;4.780;2022-09-11T12:05:23;17.48;;;12.82;;
15929;SDS011;8064;51.142;4.780;2022-09-11T12:07:51;16.25;;;14.10;;
15929;SDS011;8064;51.142;4.780;2022-09-11T12:10:19;15.07;;;13.32;;
15929;SDS011;8064;51.142;4.780;2022-09-11T12:12:52;13.52;;;11.40;;
15929;SDS011;8064;51.142;4.780;2022-09-11T12:15:23;13.85;;;11.68;;
15929;SDS011;8064;51.142;4.780;2022-09-11T12:20:46;14.18;;;12.65;;
15929;SDS011;8064;51.142;4.780;2022-09-11T12:32:17;15.05;;;11.82;;
15929;SDS011;8064;51.142;4.780;2022-09-11T12:42:54;10.90;;;9.55;;
15929;SDS011;8064;51.142;4.780;2022-09-11T12:48:04;10.43;;;9.35;;
15929;SDS011;8064;51.142;4.780;2022-09-11T12:50:33;9.57;;;8.57;;
15929;SDS011;8064;51.142;4.780;2022-09-11T12:53:00;9.60;;;8.60;;
15929;SDS011;8064;51.142;4.780;2022-09-11T12:57:57;8.35;;;7.43;;
15929;SDS011;8064;51.142;4.780;2022-09-11T13:00:37;10.55;;;7.40;;
15929;SDS011;8064;51.142;4.780;2022-09-11T13:03:06;9.75;;;8.50;;
15929;SDS011;8064;51.142;4.780;2022-09-11T13:05:42;8.98;;;7.82;;
15929;SDS011;8064;51.142;4.780;2022-09-11T13:08:17;11.02;;;8.60;;
15929;SDS011;8064;51.142;4.780;2022-09-11T13:10:46;9.45;;;8.40;;
15929;SDS011;8064;51.142;4.780;2022-09-11T13:16:16;8.98;;;7.43;;
15929;SDS011;8064;51.142;4.780;2022-09-11T13:19:11;9.77;;;7.68;;
15929;SDS011;8064;51.142;4.780;2022-09-11T13:21:39;8.60;;;6.95;;
15929;SDS011;8064;51.142;4.780;2022-09-11T13:27:12;9.30;;;8.35;;
15929;SDS011;8064;51.142;4.780;2022-09-11T13:29:44;12.02;;;7.93;;
15929;SDS011;8064;51.142;4.780;2022-09-11T13:32:13;10.85;;;7.30;;
15929;SDS011;8064;51.142;4.780;2022-09-11T13:34:41;7.13;;;6.25;;
15929;SDS011;8064;51.142;4.780;2022-09-11T13:37:10;6.68;;;5.65;;
15929;SDS011;8064;51.142;4.780;2022-09-11T13:39:39;6.80;;;5.50;;
15929;SDS011;8064;51.142;4.780;2022-09-11T13:42:08;5.03;;;4.50;;
15929;SDS011;8064;51.142;4.780;2022-09-11T13:44:42;6.45;;;4.45;;
15929;SDS011;8064;51.142;4.780;2022-09-11T13:50:09;8.27;;;5.25;;
15929;SDS011;8064;51.142;4.780;2022-09-11T13:52:38;6.60;;;5.90;;
15929;SDS011;8064;51.142;4.780;2022-09-11T13:55:08;7.70;;;5.65;;
15929;SDS011;8064;51.142;4.780;2022-09-11T13:57:49;5.15;;;4.65;;
15929;SDS011;8064;51.142;4.780;2022-09-11T14:03:21;5.45;;;4.75;;
15929;SDS011;8064;51.142;4.780;2022-09-11T14:05:53;7.20;;;4.28;;
15929;SDS011;8064;51.142;4.780;2022-09-11T14:08:22;5.75;;;4.32;;
15929;SDS011;8064;51.142;4.780;2022-09-11T14:10:53;6.60;;;4.88;;
15929;SDS011;8064;51.142;4.780;2022-09-11T14:13:33;5.47;;;4.95;;
15929;SDS011;8064;51.142;4.780;2022-09-11T14:16:31;4.65;;;4.15;;
15929;SDS011;8064;51.142;4.780;2022-09-11T14:19:05;7.93;;;3.60;;
15929;SDS011;8064;51.142;4.780;2022-09-11T14:21:38;5.35;;;3.35;;
15929;SDS011;8064;51.142;4.780;2022-09-11T14:26:57;3.97;;;2.88;;
15929;SDS011;8064;51.142;4.780;2022-09-11T14:31:53;4.57;;;3.47;;
15929;SDS011;8064;51.142;4.780;2022-09-11T14:34:38;3.50;;;2.70;;
15929;SDS011;8064;51.142;4.780;2022-09-11T14:37:07;3.08;;;2.67;;
15929;SDS011;8064;51.142;4.780;2022-09-11T14:39:47;4.28;;;2.80;;
15929;SDS011;8064;51.142;4.780;2022-09-11T14:42:20;4.65;;;3.67;;
15929;SDS011;8064;51.142;4.780;2022-09-11T14:44:49;5.22;;;3.55;;
15929;SDS011;8064;51.142;4.780;2022-09-11T14:47:18;5.57;;;3.60;;
15929;SDS011;8064;51.142;4.780;2022-09-11T14:49:46;4.18;;;3.55;;
15929;SDS011;8064;51.142;4.780;2022-09-11T14:52:13;3.20;;;2.67;;
15929;SDS011;8064;51.142;4.780;2022-09-11T14:54:40;6.88;;;2.80;;
15929;SDS011;8064;51.142;4.780;2022-09-11T14:59:48;3.90;;;2.88;;
15929;SDS011;8064;51.142;4.780;2022-09-11T15:02:15;3.92;;;3.05;;
15929;SDS011;8064;51.142;4.780;2022-09-11T15:04:44;3.10;;;2.80;;
15929;SDS011;8064;51.142;4.780;2022-09-11T15:07:11;4.50;;;3.70;;
15929;SDS011;8064;51.142;4.780;2022-09-11T15:09:38;4.93;;;3.38;;
15929;SDS011;8064;51.142;4.780;2022-09-11T15:12:05;4.80;;;3.17;;
15929;SDS011;8064;51.142;4.780;2022-09-11T15:14:32;3.92;;;2.90;;
15929;SDS011;8064;51.142;4.780;2022-09-11T15:16:59;4.25;;;3.20;;
15929;SDS011;8064;51.142;4.780;2022-09-11T15:19:27;4.75;;;3.50;;
15929;SDS011;8064;51.142;4.780;2022-09-11T15:21:54;4.07;;;3.50;;
15929;SDS011;8064;51.142;4.780;2022-09-11T15:24:21;4.75;;;3.33;;
15929;SDS011;8064;51.142;4.780;2022-09-11T15:26:48;4.30;;;3.30;;
15929;SDS011;8064;51.142;4.780;2022-09-11T15:29:16;4.30;;;2.92;;
15929;SDS011;8064;51.142;4.780;2022-09-11T15:31:41;3.88;;;2.92;;
15929;SDS011;8064;51.142;4.780;2022-09-11T15:34:08;4.30;;;2.97;;
15929;SDS011;8064;51.142;4.780;2022-09-11T15:36:35;4.75;;;3.38;;
15929;SDS011;8064;51.142;4.780;2022-09-11T15:39:03;3.10;;;2.78;;
15929;SDS011;8064;51.142;4.780;2022-09-11T15:41:29;3.65;;;3.03;;
15929;SDS011;8064;51.142;4.780;2022-09-11T15:43:55;4.05;;;2.50;;
15929;SDS011;8064;51.142;4.780;2022-09-11T15:46:21;3.25;;;2.67;;
15929;SDS011;8064;51.142;4.780;2022-09-11T15:48:48;3.55;;;3.13;;
15929;SDS011;8064;51.142;4.780;2022-09-11T15:51:16;2.80;;;2.60;;
15929;SDS011;8064;51.142;4.780;2022-09-11T15:53:44;4.00;;;3.15;;
15929;SDS011;8064;51.142;4.780;2022-09-11T15:56:11;4.40;;;3.10;;
15929;SDS011;8064;51.142;4.780;2022-09-11T15:58:40;3.05;;;2.85;;
15929;SDS011;8064;51.142;4.780;2022-09-11T16:06:31;5.68;;;3.10;;
15929;SDS011;8064;51.142;4.780;2022-09-11T16:09:00;3.28;;;2.92;;
15929;SDS011;8064;51.142;4.780;2022-09-11T16:11:29;3.72;;;3.35;;
15929;SDS011;8064;51.142;4.780;2022-09-11T16:13:57;5.07;;;3.75;;
15929;SDS011;8064;51.142;4.780;2022-09-11T16:16:23;6.65;;;4.32;;
15929;SDS011;8064;51.142;4.780;2022-09-11T16:18:49;4.22;;;3.83;;
15929;SDS011;8064;51.142;4.780;2022-09-11T16:21:15;4.25;;;2.90;;
15929;SDS011;8064;51.142;4.780;2022-09-11T16:23:42;3.10;;;2.60;;
15929;SDS011;8064;51.142;4.780;2022-09-11T16:26:09;3.90;;;3.03;;
15929;SDS011;8064;51.142;4.780;2022-09-11T16:28:37;3.40;;;3.10;;
15929;SDS011;8064;51.142;4.780;2022-09-11T16:31:04;3.40;;;3.10;;
15929;SDS011;8064;51.142;4.780;2022-09-11T16:33:32;3.45;;;3.15;;
15929;SDS011;8064;51.142;4.780;2022-09-11T16:36:01;4.40;;;3.40;;
15929;SDS011;8064;51.142;4.780;2022-09-11T16:38:30;3.33;;;3.03;;
15929;SDS011;8064;51.142;4.780;2022-09-11T16:40:59;3.90;;;2.97;;
15929;SDS011;8064;51.142;4.780;2022-09-11T16:43:25;4.68;;;3.47;;
15929;SDS011;8064;51.142;4.780;2022-09-11T16:45:51;6.00;;;3.10;;
15929;SDS011;8064;51.142;4.780;2022-09-11T16:48:17;3.70;;;3.35;;
15929;SDS011;8064;51.142;4.780;2022-09-11T16:50:49;2.65;;;2.35;;
15929;SDS011;8064;51.142;4.780;2022-09-11T16:53:17;4.88;;;3.38;;
15929;SDS011;8064;51.142;4.780;2022-09-11T16:55:43;4.30;;;3.28;;
15929;SDS011;8064;51.142;4.780;2022-09-11T16:58:10;3.72;;;3.33;;
15929;SDS011;8064;51.142;4.780;2022-09-11T17:00:38;3.42;;;3.13;;
15929;SDS011;8064;51.142;4.780;2022-09-11T17:03:04;3.67;;;3.38;;
15929;SDS011;8064;51.142;4.780;2022-09-11T17:05:30;3.72;;;3.38;;
15929;SDS011;8064;51.142;4.780;2022-09-11T17:07:56;6.18;;;3.08;;
15929;SDS011;8064;51.142;4.780;2022-09-11T17:10:22;3.55;;;2.88;;
15929;SDS011;8064;51.142;4.780;2022-09-11T17:12:48;4.13;;;3.72;;
15929;SDS011;8064;51.142;4.780;2022-09-11T17:15:14;4.88;;;3.60;;
15929;SDS011;8064;51.142;4.780;2022-09-11T17:17:40;5.18;;;3.80;;
15929;SDS011;8064;51.142;4.780;2022-09-11T17:20:08;5.13;;;4.68;;
15929;SDS011;8064;51.142;4.780;2022-09-11T17:22:35;5.47;;;4.38;;
15929;SDS011;8064;51.142;4.780;2022-09-11T17:25:03;5.32;;;4.90;;
15929;SDS011;8064;51.142;4.780;2022-09-11T17:27:29;5.75;;;5.25;;
15929;SDS011;8064;51.142;4.780;2022-09-11T17:29:55;5.18;;;4.78;;
15929;SDS011;8064;51.142;4.780;2022-09-11T17:32:22;4.88;;;4.47;;
15929;SDS011;8064;51.142;4.780;2022-09-11T17:34:48;5.25;;;4.35;;
15929;SDS011;8064;51.142;4.780;2022-09-11T17:37:15;5.65;;;4.38;;
15929;SDS011;8064;51.142;4.780;2022-09-11T17:39:41;6.63;;;4.93;;